Time;durP1;ratioP1;P1;durP2;ratioP2;P2;SDS_P1;SDS_P2;PMS_P1;PMS_P2;Temp;Humidity;BMP_temperature;BMP_pressure;BME280_temperature;BME280_humidity;BME280_pressure;Samples;Min_cycle;Max_cycle;Signal;HPM_P1;HPM_P2
2023/11/21 00:02:12;;;;;;;;;;;10.30;97.60;;;;;;4909052;29;19912;-85
2023/11/21 00:04:37;;;;;;;;;;;10.30;97.60;;;;;;4891116;29;20297;-84
2023/11/21 00:07:03;;;;;;;;;;;10.30;97.60;;;;;;4896935;29;19934;-84
2023/11/21 00:09:28;;;;;;;;;;;10.30;97.60;;;;;;4894439;29;19966;-84
2023/11/21 00:11:54;;;;;;;;;;;10.30;97.60;;;;;;4892921;29;19919;-83
2023/11/21 00:14:19;;;;;;;;;;;10.30;97.50;;;;;;4893290;29;19938;-84
2023/11/21 00:16:45;;;;;;;;;;;10.30;97.60;;;;;;4908429;29;20343;-85
2023/11/21 00:19:11;;;;;;;;;;;10.20;97.50;;;;;;4893588;29;20031;-85
2023/11/21 00:21:36;;;;;;;;;;;10.30;97.60;;;;;;4894857;29;19912;-85
2023/11/21 00:24:02;;;;;;;;;;;10.30;97.50;;;;;;4903243;29;20498;-83
2023/11/21 00:26:27;;;;;;;;;;;10.20;97.50;;;;;;4893671;29;19934;-83
2023/11/21 00:28:53;;;;;;;;;;;10.20;97.50;;;;;;4894376;29;19912;-85
2023/11/21 00:31:18;;;;;;;;;;;10.20;97.60;;;;;;4893233;29;19911;-85
2023/11/21 00:33:44;;;;;;;;;;;10.20;97.50;;;;;;4898444;29;19982;-86
2023/11/21 00:36:09;;;;;;;;;;;10.20;97.60;;;;;;4892891;29;19912;-85
2023/11/21 00:38:35;;;;;;;;;;;10.30;97.60;;;;;;4893779;29;20010;-84
2023/11/21 00:41:01;;;;;;;;;;;10.30;97.60;;;;;;4893211;29;20373;-87
2023/11/21 00:43:26;;;;;;;;;;;10.30;97.40;;;;;;4896328;29;19923;-86
2023/11/21 00:45:52;;;;;;;;;;;10.30;97.40;;;;;;4892553;29;19911;-83
2023/11/21 00:48:20;;;;;;;;;;;10.30;97.50;;;;;;4889809;29;19958;-84
2023/11/21 00:50:46;;;;;;;;;;;10.30;97.40;;;;;;4894166;29;20382;-84
2023/11/21 00:53:11;;;;;;;;;;;10.30;97.40;;;;;;4890556;29;19911;-84
2023/11/21 00:55:40;;;;;;;;;;;10.30;97.70;;;;;;4891711;29;19912;-84
2023/11/21 00:58:06;;;;;;;;;;;10.30;97.40;;;;;;4895081;29;20010;-84
2023/11/21 01:00:32;;;;;;;;;;;10.30;97.30;;;;;;4892610;29;19911;-84
2023/11/21 01:02:58;;;;;;;;;;;10.30;97.30;;;;;;4903956;29;19915;-84
2023/11/21 01:05:23;;;;;;;;;;;10.30;97.30;;;;;;4906253;29;19939;-83
2023/11/21 01:07:49;;;;;;;;;;;10.30;97.50;;;;;;4909378;29;19922;-84
2023/11/21 01:10:17;;;;;;;;;;;10.30;97.40;;;;;;4899449;29;20061;-85
2023/11/21 01:12:42;;;;;;;;;;;10.40;97.50;;;;;;4906783;29;19912;-84
2023/11/21 01:15:08;;;;;;;;;;;10.40;97.50;;;;;;4888050;29;19926;-85
2023/11/21 01:17:34;;;;;;;;;;;10.40;97.50;;;;;;4891696;29;19963;-85
2023/11/21 01:20:00;;;;;;;;;;;10.40;97.50;;;;;;4906709;29;19919;-85
2023/11/21 01:22:26;;;;;;;;;;;10.40;97.50;;;;;;4891833;29;19919;-85
2023/11/21 01:24:52;;;;;;;;;;;10.40;97.50;;;;;;4909489;29;19911;-84
2023/11/21 01:27:18;;;;;;;;;;;10.40;97.50;;;;;;4887635;29;19915;-84
2023/11/21 01:29:44;;;;;;;;;;;10.40;97.50;;;;;;4890009;29;20002;-84
2023/11/21 01:32:09;;;;;;;;;;;10.50;97.60;;;;;;4890334;29;19979;-84
2023/11/21 01:34:35;;;;;;;;;;;10.50;97.60;;;;;;4890568;29;19922;-84
2023/11/21 01:37:01;;;;;;;;;;;10.50;97.60;;;;;;4891651;29;20053;-85
2023/11/21 01:39:27;;;;;;;;;;;10.60;97.50;;;;;;4895230;29;20001;-84
2023/11/21 01:41:53;;;;;;;;;;;10.50;97.50;;;;;;4893516;29;19930;-84
2023/11/21 01:44:19;;;;;;;;;;;10.60;97.50;;;;;;4892107;29;19927;-84
2023/11/21 01:46:45;;;;;;;;;;;10.60;97.60;;;;;;4910895;29;20067;-84
2023/11/21 01:49:13;;;;;;;;;;;10.60;97.50;;;;;;4892629;29;19965;-84
2023/11/21 01:51:39;;;;;;;;;;;10.70;97.40;;;;;;4894135;29;19911;-85
2023/11/21 01:54:06;;;;;;;;;;;10.70;97.30;;;;;;4912496;29;19911;-84
2023/11/21 01:56:32;;;;;;;;;;;10.70;97.40;;;;;;4896191;29;19912;-84
2023/11/21 01:58:57;;;;;;;;;;;10.70;97.40;;;;;;4910664;29;19934;-85
2023/11/21 02:01:23;;;;;;;;;;;10.70;97.30;;;;;;4894270;29;20374;-84
2023/11/21 02:03:48;;;;;;;;;;;10.70;97.20;;;;;;4896371;29;19919;-82
2023/11/21 02:06:14;;;;;;;;;;;10.70;97.10;;;;;;4894246;29;19923;-84
2023/11/21 02:08:42;;;;;;;;;;;10.70;96.90;;;;;;4897762;29;20144;-84
2023/11/21 02:11:07;;;;;;;;;;;10.70;96.90;;;;;;4893085;29;19918;-85
2023/11/21 02:13:33;;;;;;;;;;;10.70;96.90;;;;;;4896680;29;19919;-84
2023/11/21 02:15:58;;;;;;;;;;;10.70;96.90;;;;;;4896376;29;19912;-84
2023/11/21 02:18:24;;;;;;;;;;;10.70;96.80;;;;;;4893783;29;19990;-83
2023/11/21 02:20:49;;;;;;;;;;;10.60;96.70;;;;;;4895361;29;19912;-82
2023/11/21 02:23:15;;;;;;;;;;;10.60;96.80;;;;;;4894642;29;19931;-83
2023/11/21 02:25:42;;;;;;;;;;;10.60;96.80;;;;;;4894367;29;19981;-84
2023/11/21 02:28:08;;;;;;;;;;;10.50;96.60;;;;;;4892931;29;19959;-84
2023/11/21 02:30:33;;;;;;;;;;;10.50;96.80;;;;;;4908662;29;20283;-87
2023/11/21 02:33:02;;;;;;;;;;;10.50;96.90;;;;;;4896444;29;20006;-86
2023/11/21 02:35:27;;;;;;;;;;;10.50;97.00;;;;;;4891896;29;19984;-84
2023/11/21 02:37:53;;;;;;;;;;;10.50;96.90;;;;;;4894380;29;19915;-84
2023/11/21 02:40:20;;;;;;;;;;;10.40;96.80;;;;;;4894275;29;19915;-83
2023/11/21 02:42:47;;;;;;;;;;;10.40;96.80;;;;;;4893886;29;19919;-84
2023/11/21 02:45:14;;;;;;;;;;;10.40;96.80;;;;;;4894860;29;22023;-85
2023/11/21 02:47:39;;;;;;;;;;;10.40;97.00;;;;;;4893475;29;19919;-84
2023/11/21 02:50:07;;;;;;;;;;;10.40;97.00;;;;;;4895809;29;19915;-84
2023/11/21 02:52:33;;;;;;;;;;;10.40;97.10;;;;;;4894876;29;20586;-84
2023/11/21 02:54:58;;;;;;;;;;;10.40;97.00;;;;;;4891682;29;19967;-83
2023/11/21 02:57:24;;;;;;;;;;;10.40;96.90;;;;;;4895298;29;19975;-84
2023/11/21 02:59:50;;;;;;;;;;;10.30;97.00;;;;;;4893551;29;20251;-83
2023/11/21 03:02:15;;;;;;;;;;;10.30;97.20;;;;;;4892009;29;19926;-84
2023/11/21 03:04:42;;;;;;;;;;;10.30;97.20;;;;;;4893265;29;20018;-85
2023/11/21 03:07:08;;;;;;;;;;;10.30;97.20;;;;;;4893153;29;19915;-85
2023/11/21 03:09:34;;;;;;;;;;;10.30;97.30;;;;;;4898458;29;19974;-85
2023/11/21 03:11:59;;;;;;;;;;;10.30;97.40;;;;;;4893282;29;19931;-84
2023/11/21 03:14:24;;;;;;;;;;;10.30;97.40;;;;;;4893900;29;19916;-85
2023/11/21 03:16:50;;;;;;;;;;;10.30;97.50;;;;;;4891997;29;19911;-83
2023/11/21 03:19:16;;;;;;;;;;;10.30;97.60;;;;;;4909367;29;19915;-84
2023/11/21 03:21:41;;;;;;;;;;;10.30;97.50;;;;;;4895686;29;19994;-84
2023/11/21 03:24:07;;;;;;;;;;;10.30;97.40;;;;;;4886286;29;19926;-85
2023/11/21 03:26:32;;;;;;;;;;;10.30;97.50;;;;;;4904276;29;19911;-85
2023/11/21 03:28:58;;;;;;;;;;;10.30;97.40;;;;;;4912221;29;19911;-84
2023/11/21 03:31:23;;;;;;;;;;;10.30;97.30;;;;;;4895397;29;19911;-84
2023/11/21 03:33:49;;;;;;;;;;;10.30;97.40;;;;;;4894931;29;19953;-85
2023/11/21 03:36:14;;;;;;;;;;;10.30;97.50;;;;;;4899867;29;20019;-84
2023/11/21 03:38:40;;;;;;;;;;;10.20;97.70;;;;;;4895945;29;19916;-85
2023/11/21 03:41:06;;;;;;;;;;;10.30;97.80;;;;;;4892710;29;19915;-84
2023/11/21 03:43:32;;;;;;;;;;;10.30;97.80;;;;;;4894428;29;19920;-85
2023/11/21 03:45:57;;;;;;;;;;;10.40;97.90;;;;;;4893728;29;20323;-84
2023/11/21 03:48:23;;;;;;;;;;;10.40;97.70;;;;;;4889583;29;19911;-85
2023/11/21 03:50:48;;;;;;;;;;;10.40;97.70;;;;;;4891092;29;19970;-84
2023/11/21 03:53:14;;;;;;;;;;;10.40;97.70;;;;;;4908198;29;19920;-84
2023/11/21 03:55:39;;;;;;;;;;;10.40;97.70;;;;;;4908361;29;20367;-84
2023/11/21 03:58:05;;;;;;;;;;;10.50;97.60;;;;;;4894695;29;19971;-85
2023/11/21 04:00:30;;;;;;;;;;;10.50;97.40;;;;;;4888028;29;19915;-84
2023/11/21 04:02:56;;;;;;;;;;;10.60;97.30;;;;;;4889510;29;19978;-84
2023/11/21 04:05:22;;;;;;;;;;;10.60;97.20;;;;;;4887341;29;19911;-84
2023/11/21 04:07:49;;;;;;;;;;;10.60;97.10;;;;;;4893446;29;20443;-84
2023/11/21 04:10:15;;;;;;;;;;;10.60;96.90;;;;;;4891316;29;19920;-84
2023/11/21 04:12:41;;;;;;;;;;;10.60;96.80;;;;;;4908839;29;20067;-86
2023/11/21 04:15:08;;;;;;;;;;;10.60;96.90;;;;;;4893430;29;20410;-86
2023/11/21 04:17:34;;;;;;;;;;;10.50;96.80;;;;;;4890217;29;19963;-85
2023/11/21 04:19:59;;;;;;;;;;;10.50;96.80;;;;;;4889847;29;19920;-84
2023/11/21 04:22:25;;;;;;;;;;;10.40;96.90;;;;;;4893333;29;20434;-84
2023/11/21 04:24:50;;;;;;;;;;;10.50;96.90;;;;;;4893626;29;19915;-85
2023/11/21 04:27:17;;;;;;;;;;;10.50;96.90;;;;;;4899623;29;19918;-85
2023/11/21 04:29:43;;;;;;;;;;;10.50;96.80;;;;;;4892890;29;20310;-86
2023/11/21 04:32:09;;;;;;;;;;;10.50;96.80;;;;;;4891600;29;19919;-86
2023/11/21 04:34:35;;;;;;;;;;;10.50;96.80;;;;;;4892227;29;19915;-86
2023/11/21 04:37:00;;;;;;;;;;;10.50;96.80;;;;;;4892835;29;20311;-86
2023/11/21 04:39:26;;;;;;;;;;;10.50;96.70;;;;;;4905315;29;19911;-85
2023/11/21 04:41:52;;;;;;;;;;;10.50;96.70;;;;;;4892752;29;19951;-85
2023/11/21 04:44:17;;;;;;;;;;;10.50;96.70;;;;;;4890828;29;19927;-86
2023/11/21 04:46:43;;;;;;;;;;;10.50;96.70;;;;;;4892656;29;20370;-86
2023/11/21 04:49:08;;;;;;;;;;;10.50;96.70;;;;;;4889906;29;19939;-85
2023/11/21 04:51:34;;;;;;;;;;;10.50;96.90;;;;;;4890741;29;20365;-86
2023/11/21 04:53:59;;;;;;;;;;;10.50;96.90;;;;;;4892988;29;19912;-85
2023/11/21 04:56:25;;;;;;;;;;;10.50;96.90;;;;;;4889731;29;19926;-85
2023/11/21 04:58:50;;;;;;;;;;;10.50;96.80;;;;;;4887440;29;19920;-85
2023/11/21 05:01:16;;;;;;;;;;;10.60;96.80;;;;;;4890212;29;19926;-85
2023/11/21 05:03:41;;;;;;;;;;;10.60;96.80;;;;;;4891259;29;19950;-84
2023/11/21 05:06:09;;;;;;;;;;;10.60;97.00;;;;;;4889883;29;19994;-85
2023/11/21 05:08:36;;;;;;;;;;;10.60;97.00;;;;;;4892524;29;19926;-85
2023/11/21 05:11:02;;;;;;;;;;;10.60;97.40;;;;;;4889238;29;20359;-85
2023/11/21 05:13:28;;;;;;;;;;;10.60;97.10;;;;;;4892738;29;19967;-86
2023/11/21 05:15:59;;;;;;;;;;;10.60;97.00;;;;;;4903629;29;19915;-85
2023/11/21 05:18:29;;;;;;;;;;;10.50;97.00;;;;;;4904155;29;19983;-85
2023/11/21 05:20:55;;;;;;;;;;;10.50;97.00;;;;;;4894626;29;20307;-86
2023/11/21 05:23:21;;;;;;;;;;;10.50;96.90;;;;;;4907484;29;19919;-87
2023/11/21 05:25:46;;;;;;;;;;;10.50;97.00;;;;;;4891898;29;20377;-87
2023/11/21 05:28:12;;;;;;;;;;;10.50;97.00;;;;;;4904652;29;20006;-87
2023/11/21 05:30:39;;;;;;;;;;;10.50;97.00;;;;;;4892825;29;19911;-87
2023/11/21 05:33:04;;;;;;;;;;;10.50;97.00;;;;;;4883190;29;19911;-87
2023/11/21 05:35:30;;;;;;;;;;;10.50;97.00;;;;;;4887999;29;19915;-87
2023/11/21 05:37:56;;;;;;;;;;;10.50;97.30;;;;;;4890656;29;19988;-86
2023/11/21 05:40:22;;;;;;;;;;;10.50;97.10;;;;;;4890972;29;20320;-87
2023/11/21 05:42:47;;;;;;;;;;;10.50;97.10;;;;;;4888778;29;19962;-87
2023/11/21 05:45:13;;;;;;;;;;;10.50;97.10;;;;;;4892120;29;20431;-86
2023/11/21 05:47:40;;;;;;;;;;;10.40;97.10;;;;;;4891395;29;20302;-86
2023/11/21 05:50:09;;;;;;;;;;;10.40;97.10;;;;;;4891429;29;19916;-87
2023/11/21 05:52:36;;;;;;;;;;;10.30;97.10;;;;;;4894930;29;19912;-86
2023/11/21 05:55:01;;;;;;;;;;;10.40;97.10;;;;;;4892097;29;19934;-87
2023/11/21 05:57:26;;;;;;;;;;;10.40;97.10;;;;;;4892891;29;19923;-87
2023/11/21 05:59:52;;;;;;;;;;;10.40;97.00;;;;;;4904464;29;19963;-86
2023/11/21 06:02:18;;;;;;;;;;;10.40;97.10;;;;;;4888681;29;19919;-85
2023/11/21 06:04:43;;;;;;;;;;;10.50;97.20;;;;;;4906596;29;19963;-85
2023/11/21 06:07:10;;;;;;;;;;;10.40;97.10;;;;;;4891916;29;20248;-85
2023/11/21 06:09:35;;;;;;;;;;;10.50;97.20;;;;;;4909732;29;19979;-86
2023/11/21 06:12:01;;;;;;;;;;;10.40;97.10;;;;;;4892514;29;19911;-86
2023/11/21 06:14:26;;;;;;;;;;;10.40;97.10;;;;;;4888862;29;19919;-86
2023/11/21 06:16:52;;;;;;;;;;;10.30;97.10;;;;;;4892237;29;19919;-85
2023/11/21 06:19:18;;;;;;;;;;;10.30;97.40;;;;;;4891843;29;19916;-86
2023/11/21 06:21:47;;;;;;;;;;;10.30;97.10;;;;;;4899633;29;19911;-89
2023/11/21 06:24:12;;;;;;;;;;;10.20;97.10;;;;;;4897873;29;19927;-86
2023/11/21 06:26:38;;;;;;;;;;;10.20;97.20;;;;;;4897488;29;19911;-86
2023/11/21 06:29:03;;;;;;;;;;;10.20;97.20;;;;;;4900736;29;19911;-86
2023/11/21 06:31:29;;;;;;;;;;;10.20;97.30;;;;;;4898593;29;19919;-86
2023/11/21 06:33:55;;;;;;;;;;;10.20;97.30;;;;;;4891514;29;20542;-86
2023/11/21 06:36:20;;;;;;;;;;;10.20;97.30;;;;;;4892680;29;20001;-86
2023/11/21 06:38:46;;;;;;;;;;;10.30;97.20;;;;;;4897089;29;19911;-85
2023/11/21 06:41:15;;;;;;;;;;;10.30;97.20;;;;;;4900291;29;20374;-86
2023/11/21 06:48:44;;;;;;;;;;;10.30;97.20;;;;;;4915609;29;19923;-85
2023/11/21 06:51:09;;;;;;;;;;;10.30;97.20;;;;;;4914702;29;19922;-86
2023/11/21 06:53:35;;;;;;;;;;;10.30;97.30;;;;;;4923884;29;19911;-87
2023/11/21 06:56:01;;;;;;;;;;;10.20;97.30;;;;;;4921190;29;20222;-86
2023/11/21 06:58:26;;;;;;;;;;;10.20;97.40;;;;;;4900679;29;19962;-86
2023/11/21 07:00:52;;;;;;;;;;;10.20;97.40;;;;;;4888186;29;20323;-87
2023/11/21 07:03:19;;;;;;;;;;;10.20;97.50;;;;;;4892827;29;19919;-86
2023/11/21 07:05:44;;;;;;;;;;;10.20;97.50;;;;;;4908520;29;20283;-87
2023/11/21 07:08:10;;;;;;;;;;;10.30;97.50;;;;;;4895825;29;19911;-86
2023/11/21 07:10:37;;;;;;;;;;;10.30;97.40;;;;;;4896714;29;19911;-86
2023/11/21 07:13:03;;;;;;;;;;;10.30;97.40;;;;;;4889947;29;19912;-86
2023/11/21 07:15:28;;;;;;;;;;;10.30;97.50;;;;;;4897401;29;19915;-86
2023/11/21 07:17:54;;;;;;;;;;;10.30;97.50;;;;;;4900976;29;20362;-86
2023/11/21 07:20:19;;;;;;;;;;;10.30;97.50;;;;;;4895901;29;20077;-87
2023/11/21 07:22:45;;;;;;;;;;;10.30;97.60;;;;;;4895348;29;19938;-87
2023/11/21 07:25:10;;;;;;;;;;;10.30;97.60;;;;;;4896771;29;19915;-87
2023/11/21 07:27:37;;;;;;;;;;;10.40;97.60;;;;;;4896046;29;20010;-86
2023/11/21 07:30:07;;;;;;;;;;;10.40;97.50;;;;;;4893726;29;20006;-86
2023/11/21 07:32:33;;;;;;;;;;;10.40;97.50;;;;;;4893628;29;19912;-86
2023/11/21 07:35:01;;;;;;;;;;;10.50;97.50;;;;;;4891488;29;19915;-86
2023/11/21 07:37:28;;;;;;;;;;;10.50;97.50;;;;;;4894623;29;19919;-86
2023/11/21 07:39:56;;;;;;;;;;;10.50;97.50;;;;;;4893505;29;20291;-86
2023/11/21 07:42:26;;;;;;;;;;;10.40;97.40;;;;;;4893526;29;19919;-86
2023/11/21 07:44:52;;;;;;;;;;;10.40;97.50;;;;;;4911836;29;20359;-86
2023/11/21 07:47:17;;;;;;;;;;;10.40;97.60;;;;;;4896531;29;19971;-86
2023/11/21 07:49:43;;;;;;;;;;;10.50;97.70;;;;;;4896126;29;19911;-86
2023/11/21 07:52:09;;;;;;;;;;;10.50;97.80;;;;;;4891264;29;19959;-86
2023/11/21 07:54:35;;;;;;;;;;;10.60;97.80;;;;;;4895698;29;19944;-86
2023/11/21 07:57:01;;;;;;;;;;;10.60;97.70;;;;;;4894407;29;19911;-87
2023/11/21 07:59:27;;;;;;;;;;;10.60;97.70;;;;;;4891162;29;19931;-90
2023/11/21 08:01:52;;;;;;;;;;;10.60;97.70;;;;;;4894091;29;20371;-86
2023/11/21 08:04:18;;;;;;;;;;;10.70;97.80;;;;;;4894075;29;19923;-86
2023/11/21 08:06:43;;;;;;;;;;;10.70;97.70;;;;;;4893826;29;19958;-86
2023/11/21 08:09:10;;;;;;;;;;;10.70;97.70;;;;;;4895447;29;19935;-86
2023/11/21 08:11:35;;;;;;;;;;;10.80;97.80;;;;;;4892057;29;19919;-86
2023/11/21 08:14:01;;;;;;;;;;;10.80;97.70;;;;;;4902833;29;19915;-86
2023/11/21 08:16:27;;;;;;;;;;;10.90;97.70;;;;;;4892861;29;19998;-86
2023/11/21 08:18:54;;;;;;;;;;;10.90;97.70;;;;;;4893709;29;19915;-86
2023/11/21 08:21:19;;;;;;;;;;;10.90;97.70;;;;;;4893009;29;20426;-91
2023/11/21 08:23:45;;;;;;;;;;;10.90;97.80;;;;;;4901388;29;19984;-90
2023/11/21 08:26:10;;;;;;;;;;;10.90;97.90;;;;;;4894909;29;20385;-86
2023/11/21 08:28:36;;;;;;;;;;;10.90;98.00;;;;;;4894784;29;19918;-86
2023/11/21 08:31:01;;;;;;;;;;;10.90;98.00;;;;;;4893185;29;20285;-86
2023/11/21 08:33:27;;;;;;;;;;;11.00;98.00;;;;;;4892498;29;19919;-85
2023/11/21 08:35:53;;;;;;;;;;;11.00;97.90;;;;;;4890102;29;20324;-85
2023/11/21 08:38:18;;;;;;;;;;;11.00;97.90;;;;;;4893792;29;19961;-85
2023/11/21 08:40:44;;;;;;;;;;;11.00;97.90;;;;;;4893081;29;20350;-85
2023/11/21 08:43:12;;;;;;;;;;;11.10;98.00;;;;;;4893092;29;20373;-85
2023/11/21 08:45:37;;;;;;;;;;;11.10;98.00;;;;;;4895243;29;20006;-85
2023/11/21 08:48:03;;;;;;;;;;;11.10;97.90;;;;;;4896712;29;20003;-85
2023/11/21 08:50:28;;;;;;;;;;;11.10;98.00;;;;;;4894499;29;19911;-85
2023/11/21 08:52:55;;;;;;;;;;;11.10;98.10;;;;;;4895047;29;20438;-85
2023/11/21 08:55:21;;;;;;;;;;;11.20;98.00;;;;;;4894100;29;19912;-84
2023/11/21 08:57:47;;;;;;;;;;;11.30;97.90;;;;;;4899304;29;19961;-85
2023/11/21 09:00:16;;;;;;;;;;;11.30;97.70;;;;;;4894054;29;20358;-85
2023/11/21 09:02:43;;;;;;;;;;;11.30;97.60;;;;;;4896099;29;19915;-85
2023/11/21 09:05:09;;;;;;;;;;;11.30;97.60;;;;;;4895427;29;19999;-84
2023/11/21 09:07:35;;;;;;;;;;;11.30;97.70;;;;;;4894399;29;19986;-85
2023/11/21 09:10:00;;;;;;;;;;;11.30;97.70;;;;;;4894281;29;20018;-84
2023/11/21 09:12:26;;;;;;;;;;;11.40;97.70;;;;;;4893253;29;20438;-85
2023/11/21 09:14:51;;;;;;;;;;;11.40;97.80;;;;;;4891820;29;20366;-84
2023/11/21 09:17:17;;;;;;;;;;;11.50;97.70;;;;;;4896222;29;20010;-84
2023/11/21 09:19:49;;;;;;;;;;;11.40;97.60;;;;;;4895123;29;20346;-85
2023/11/21 09:22:15;;;;;;;;;;;11.50;97.70;;;;;;4892743;29;19911;-85
2023/11/21 09:24:40;;;;;;;;;;;11.50;97.70;;;;;;4894372;29;20358;-85
2023/11/21 09:27:06;;;;;;;;;;;11.50;97.70;;;;;;4891678;29;20011;-83
2023/11/21 09:29:34;;;;;;;;;;;11.60;97.70;;;;;;4894521;29;19977;-85
2023/11/21 09:32:01;;;;;;;;;;;11.60;97.70;;;;;;4894121;29;19963;-85
2023/11/21 09:34:27;;;;;;;;;;;11.60;97.60;;;;;;4893376;29;19911;-85
2023/11/21 09:36:53;;;;;;;;;;;11.60;97.60;;;;;;4889408;29;19912;-85
2023/11/21 09:39:18;;;;;;;;;;;11.60;97.50;;;;;;4891242;29;19935;-85
2023/11/21 09:41:48;;;;;;;;;;;11.60;97.40;;;;;;4890331;29;20379;-84
2023/11/21 09:44:17;;;;;;;;;;;11.70;97.50;;;;;;4906763;29;19955;-84
2023/11/21 09:46:43;;;;;;;;;;;11.70;97.40;;;;;;4887307;29;19983;-83
2023/11/21 09:49:13;;;;;;;;;;;11.70;97.40;;;;;;4895151;29;20272;-84
2023/11/21 09:51:45;;;;;;;;;;;11.60;97.30;;;;;;4893739;29;19911;-85
2023/11/21 09:54:11;;;;;;;;;;;11.60;97.30;;;;;;4889977;29;19919;-84
2023/11/21 09:56:37;;;;;;;;;;;11.60;97.30;;;;;;4894588;29;19911;-85
2023/11/21 09:59:07;;;;;;;;;;;11.70;97.60;;;;;;4902023;29;19956;-85
2023/11/21 10:01:32;;;;;;;;;;;11.70;97.30;;;;;;4893283;29;19911;-85
2023/11/21 10:03:59;;;;;;;;;;;11.70;97.20;;;;;;4897614;29;19927;-85
2023/11/21 10:06:26;;;;;;;;;;;11.80;97.20;;;;;;4892430;29;19912;-85
2023/11/21 10:08:53;;;;;;;;;;;11.80;97.10;;;;;;4895091;29;20014;-85
2023/11/21 10:11:19;;;;;;;;;;;11.80;97.10;;;;;;4895804;29;19915;-85
2023/11/21 10:13:46;;;;;;;;;;;11.90;97.10;;;;;;4895895;29;19922;-85
2023/11/21 10:16:14;;;;;;;;;;;11.90;97.10;;;;;;4895717;29;19971;-85
2023/11/21 10:18:40;;;;;;;;;;;11.90;97.20;;;;;;4897517;29;19934;-85
2023/11/21 10:21:06;;;;;;;;;;;11.80;97.30;;;;;;4895487;29;19926;-85
2023/11/21 10:23:32;;;;;;;;;;;11.80;97.30;;;;;;4906854;29;19926;-85
2023/11/21 10:25:59;;;;;;;;;;;11.90;97.40;;;;;;4887851;29;20484;-85
2023/11/21 10:28:24;;;;;;;;;;;11.90;97.30;;;;;;4887831;29;19921;-84
2023/11/21 10:30:50;;;;;;;;;;;11.90;97.30;;;;;;4907109;29;19915;-85
2023/11/21 10:33:16;;;;;;;;;;;11.90;97.30;;;;;;4890183;29;19912;-85
2023/11/21 10:35:41;;;;;;;;;;;11.90;97.40;;;;;;4894503;29;19919;-84
2023/11/21 10:38:10;;;;;;;;;;;11.70;97.50;;;;;;4901225;29;19911;-84
2023/11/21 10:40:39;;;;;;;;;;;11.70;97.80;;;;;;4894671;29;20385;-85
2023/11/21 10:43:12;;;;;;;;;;;11.60;98.00;;;;;;4894856;29;20006;-85
2023/11/21 10:45:38;;;;;;;;;;;11.70;98.20;;;;;;4893293;29;19998;-85
2023/11/21 10:48:15;;;;;;;;;;;11.80;98.30;;;;;;4899334;29;20610;-85
2023/11/21 10:50:41;;;;;;;;;;;11.80;98.10;;;;;;4911255;29;19955;-84
2023/11/21 10:53:06;;;;;;;;;;;11.80;98.00;;;;;;4896509;29;19943;-85
2023/11/21 10:55:34;;;;;;;;;;;11.80;98.00;;;;;;4894995;29;19911;-84
2023/11/21 10:58:04;;;;;;;;;;;11.80;98.00;;;;;;4895338;29;19915;-84
2023/11/21 11:00:30;;;;;;;;;;;11.80;98.00;;;;;;4894462;29;19918;-84
2023/11/21 11:02:56;;;;;;;;;;;11.80;98.00;;;;;;4895721;29;19920;-85
2023/11/21 11:05:23;;;;;;;;;;;11.80;98.00;;;;;;4895721;29;19911;-84
2023/11/21 11:07:59;;;;;;;;;;;11.80;98.00;;;;;;4895740;29;20343;-85
2023/11/21 11:10:26;;;;;;;;;;;11.80;98.00;;;;;;4893670;29;19978;-84
2023/11/21 11:12:53;;;;;;;;;;;11.70;97.90;;;;;;4904621;29;19912;-84
2023/11/21 11:15:19;;;;;;;;;;;11.70;98.00;;;;;;4893044;29;20026;-84
2023/11/21 11:17:45;;;;;;;;;;;11.60;98.00;;;;;;4894581;29;20002;-84
2023/11/21 11:20:12;;;;;;;;;;;11.60;98.10;;;;;;4892943;29;19911;-85
2023/11/21 11:22:42;;;;;;;;;;;11.60;98.20;;;;;;4895105;29;20299;-84
2023/11/21 11:25:26;;;;;;;;;;;11.60;98.20;;;;;;4900335;29;19915;-83
2023/11/21 11:27:54;;;;;;;;;;;11.60;98.30;;;;;;4908045;29;19994;-84
2023/11/21 11:30:28;;;;;;;;;;;11.50;98.50;;;;;;4893929;29;19916;-84
2023/11/21 11:32:56;;;;;;;;;;;11.50;98.50;;;;;;4894988;29;19915;-84
2023/11/21 11:35:32;;;;;;;;;;;11.50;98.50;;;;;;4909375;29;19919;-84
2023/11/21 11:37:57;;;;;;;;;;;11.50;98.40;;;;;;4894959;29;19911;-84
2023/11/21 11:40:25;;;;;;;;;;;11.50;98.50;;;;;;4895248;29;19918;-84
2023/11/21 11:42:58;;;;;;;;;;;11.50;98.80;;;;;;4894947;29;20110;-84
2023/11/21 11:45:28;;;;;;;;;;;11.40;98.70;;;;;;4893428;29;19915;-84
2023/11/21 11:47:56;;;;;;;;;;;11.50;98.70;;;;;;4896610;29;20445;-84
2023/11/21 11:50:22;;;;;;;;;;;11.50;98.70;;;;;;4896515;29;19911;-84
2023/11/21 11:52:48;;;;;;;;;;;11.50;98.70;;;;;;4892764;29;19915;-84
2023/11/21 11:55:21;;;;;;;;;;;11.50;98.60;;;;;;4891227;29;20010;-84
2023/11/21 11:57:55;;;;;;;;;;;11.50;98.70;;;;;;4893577;29;19961;-84
2023/11/21 12:00:26;;;;;;;;;;;11.50;98.80;;;;;;4891442;29;19927;-84
2023/11/21 12:02:53;;;;;;;;;;;11.60;98.90;;;;;;4888409;29;19931;-83
2023/11/21 12:05:20;;;;;;;;;;;11.70;98.80;;;;;;4909525;29;19926;-84
2023/11/21 12:07:45;;;;;;;;;;;11.70;98.70;;;;;;4889676;29;20367;-83
2023/11/21 12:10:14;;;;;;;;;;;11.70;98.60;;;;;;4885505;29;19995;-84
2023/11/21 12:12:50;;;;;;;;;;;11.70;98.60;;;;;;4892307;29;19912;-84
2023/11/21 12:15:16;;;;;;;;;;;11.80;98.60;;;;;;4912279;29;19925;-83
2023/11/21 12:17:43;;;;;;;;;;;11.70;98.60;;;;;;4889858;29;19911;-83
2023/11/21 12:20:14;;;;;;;;;;;11.70;98.70;;;;;;4890096;29;19942;-83
2023/11/21 12:22:41;;;;;;;;;;;11.70;98.60;;;;;;4888789;29;19911;-84
2023/11/21 12:25:06;;;;;;;;;;;11.60;98.60;;;;;;4893946;29;20374;-84
2023/11/21 12:27:32;;;;;;;;;;;11.50;98.90;;;;;;4898884;29;19971;-83
2023/11/21 12:29:58;;;;;;;;;;;11.50;98.90;;;;;;4891037;29;20291;-83
2023/11/21 12:32:25;;;;;;;;;;;11.50;99.10;;;;;;4907334;29;20322;-83
2023/11/21 12:34:51;;;;;;;;;;;11.50;99.20;;;;;;4893538;29;20366;-83
2023/11/21 12:37:17;;;;;;;;;;;11.40;99.20;;;;;;4893514;29;19951;-84
2023/11/21 12:39:42;;;;;;;;;;;11.50;99.30;;;;;;4891009;29;19998;-84
2023/11/21 12:42:08;;;;;;;;;;;11.50;99.20;;;;;;4904798;29;19942;-83
2023/11/21 12:44:34;;;;;;;;;;;11.50;99.20;;;;;;4892329;29;19972;-83
2023/11/21 12:46:59;;;;;;;;;;;11.50;99.20;;;;;;4907855;29;20371;-83
2023/11/21 12:49:25;;;;;;;;;;;11.50;99.20;;;;;;4890226;29;19927;-83
2023/11/21 12:51:50;;;;;;;;;;;11.40;99.10;;;;;;4888916;29;20461;-83
2023/11/21 12:54:17;;;;;;;;;;;11.40;99.20;;;;;;4906294;29;19922;-84
2023/11/21 12:56:47;;;;;;;;;;;11.40;99.30;;;;;;4894583;29;19919;-83
2023/11/21 12:59:14;;;;;;;;;;;11.50;99.30;;;;;;4893474;29;20393;-83
2023/11/21 13:01:41;;;;;;;;;;;11.50;99.30;;;;;;4892225;29;20281;-84
2023/11/21 13:04:07;;;;;;;;;;;11.40;99.20;;;;;;4893571;29;19923;-84
2023/11/21 13:06:38;;;;;;;;;;;11.50;99.30;;;;;;4892404;29;20393;-84
2023/11/21 13:09:04;;;;;;;;;;;11.50;99.30;;;;;;4891063;29;19964;-83
2023/11/21 13:11:33;;;;;;;;;;;11.50;99.30;;;;;;4893065;29;19922;-84
2023/11/21 13:14:00;;;;;;;;;;;11.50;99.30;;;;;;4892855;29;19982;-84
2023/11/21 13:16:26;;;;;;;;;;;11.50;99.20;;;;;;4892465;29;19918;-85
2023/11/21 13:18:52;;;;;;;;;;;11.40;99.50;;;;;;4894126;29;19916;-84
2023/11/21 13:21:17;;;;;;;;;;;11.40;99.40;;;;;;4891116;29;19966;-84
2023/11/21 13:23:45;;;;;;;;;;;11.40;99.50;;;;;;4893904;29;19923;-84
2023/11/21 13:26:12;;;;;;;;;;;11.40;99.50;;;;;;4889313;29;19962;-84
2023/11/21 13:28:37;;;;;;;;;;;11.40;99.40;;;;;;4908054;29;19963;-84
2023/11/21 13:31:12;;;;;;;;;;;11.40;99.40;;;;;;4889350;29;19962;-83
2023/11/21 13:33:42;;;;;;;;;;;11.50;99.40;;;;;;4893598;29;19965;-84
2023/11/21 13:36:09;;;;;;;;;;;11.50;99.30;;;;;;4892583;29;19918;-83
2023/11/21 13:38:35;;;;;;;;;;;11.50;99.30;;;;;;4897979;29;19915;-84
2023/11/21 13:41:01;;;;;;;;;;;11.60;99.40;;;;;;4896968;29;19918;-84
2023/11/21 13:43:28;;;;;;;;;;;11.60;99.20;;;;;;4896129;29;19923;-84
2023/11/21 13:46:12;;;;;;;;;;;11.60;99.10;;;;;;4905424;29;19911;-84
2023/11/21 13:48:42;;;;;;;;;;;11.60;99.10;;;;;;4899916;29;20215;-84
2023/11/21 13:51:17;;;;;;;;;;;11.60;99.10;;;;;;4887690;29;19934;-83
2023/11/21 13:53:44;;;;;;;;;;;11.60;99.10;;;;;;4893790;29;19918;-83
2023/11/21 13:56:09;;;;;;;;;;;11.50;99.10;;;;;;4909208;29;19998;-84
2023/11/21 13:58:50;;;;;;;;;;;11.50;99.10;;;;;;4907806;29;19912;-84
2023/11/21 14:01:41;;;;;;;;;;;11.40;99.10;;;;;;4891577;29;19918;-84
2023/11/21 14:04:19;;;;;;;;;;;11.20;99.30;;;;;;4885897;29;19919;-84
2023/11/21 14:06:54;;;;;;;;;;;11.10;99.60;;;;;;4887239;29;19919;-84
2023/11/21 14:09:31;;;;;;;;;;;11.00;99.80;;;;;;4897202;29;19911;-84
2023/11/21 14:11:59;;;;;;;;;;;11.00;99.90;;;;;;4901965;29;19937;-84
2023/11/21 14:14:25;;;;;;;;;;;11.00;99.90;;;;;;4908673;29;19917;-84
2023/11/21 14:16:51;;;;;;;;;;;10.90;99.90;;;;;;4893188;29;19916;-83
2023/11/21 14:19:17;;;;;;;;;;;10.90;99.90;;;;;;4895990;29;19923;-84